createdAt,value
2022-11-20T00:01:20.541Z,101047.53
2022-11-20T00:03:47.534Z,101050.97
2022-11-20T00:06:16.416Z,101052.66
2022-11-20T00:08:43.088Z,101052.66
2022-11-20T00:11:16.334Z,101051.81
2022-11-20T00:13:46.989Z,101053.50
2022-11-20T00:16:15.768Z,101056.91
2022-11-20T00:18:43.426Z,101053.50
2022-11-20T00:21:15.744Z,101052.66
2022-11-20T00:23:43.289Z,101053.50
2022-11-20T00:26:15.555Z,101049.25
2022-11-20T00:28:43.673Z,101054.34
2022-11-20T00:31:11.878Z,101055.19
2022-11-20T00:33:38.740Z,101051.78
2022-11-20T00:36:10.382Z,101055.22
2022-11-20T00:38:37.105Z,101052.66
2022-11-20T00:41:06.685Z,101051.81
2022-11-20T00:43:33.595Z,101045.81
2022-11-20T00:46:06.995Z,101047.53
2022-11-20T00:48:33.781Z,101042.41
2022-11-20T00:51:00.672Z,101041.56
2022-11-20T00:53:27.453Z,101033.91
2022-11-20T00:56:05.370Z,101042.41
2022-11-20T00:58:37.556Z,101035.59
2022-11-20T01:01:21.994Z,101036.47
2022-11-20T01:03:50.618Z,101033.91
2022-11-20T01:06:26.241Z,101028.78
2022-11-20T01:08:56.239Z,101028.75
2022-11-20T01:11:28.307Z,101030.47
2022-11-20T01:13:56.436Z,101028.78
2022-11-20T01:16:28.628Z,101021.09
2022-11-20T01:18:58.556Z,101019.38
2022-11-20T01:21:36.223Z,101023.66
2022-11-20T01:24:03.525Z,101026.22
2022-11-20T01:26:32.542Z,101015.13
2022-11-20T01:29:00.399Z,101017.69
2022-11-20T01:31:31.860Z,101018.53
2022-11-20T01:34:02.246Z,101021.09
2022-11-20T01:36:30.800Z,101026.19
2022-11-20T01:39:00.427Z,101023.66
2022-11-20T01:41:49.054Z,101026.19
2022-11-20T01:44:18.682Z,101021.94
2022-11-20T01:47:03.709Z,101017.66
2022-11-20T01:49:42.100Z,101018.50
2022-11-20T01:52:21.597Z,101023.63
2022-11-20T01:55:10.114Z,101016.81
2022-11-20T01:57:38.809Z,101014.28
2022-11-20T02:00:11.720Z,101011.72
2022-11-20T02:02:40.140Z,101011.72
2022-11-20T02:05:24.290Z,100998.09
2022-11-20T02:07:51.703Z,101001.47
2022-11-20T02:10:18.216Z,101007.47
2022-11-20T02:13:04.566Z,101006.59
2022-11-20T02:15:32.941Z,100998.06
2022-11-20T02:17:59.597Z,100986.97
2022-11-20T02:20:26.397Z,100989.53
2022-11-20T02:23:11.790Z,100986.13
2022-11-20T02:25:39.429Z,100981.84
2022-11-20T02:28:06.679Z,100986.97
2022-11-20T02:30:33.130Z,100978.44
2022-11-20T02:32:59.607Z,100981.84
2022-11-20T02:35:26.041Z,100990.34
2022-11-20T02:37:55.794Z,100979.28
2022-11-20T02:40:23.046Z,100981.84
2022-11-20T02:42:55.939Z,100977.59
2022-11-20T02:45:23.746Z,100975.88
2022-11-20T02:47:50.645Z,100981.00
2022-11-20T02:50:17.246Z,100975.84
2022-11-20T02:52:44.105Z,100980.16
2022-11-20T02:55:11.444Z,100972.44
2022-11-20T02:57:38.039Z,100981.81
2022-11-20T03:00:05.576Z,100985.25
2022-11-20T03:02:33.043Z,100967.34
2022-11-20T03:04:59.999Z,100969.91
2022-11-20T03:07:26.526Z,100971.59
2022-11-20T03:09:53.016Z,100969.03
2022-11-20T03:12:19.472Z,100973.28
2022-11-20T03:14:50.186Z,100969.03
2022-11-20T03:17:19.323Z,100975.84
2022-11-20T03:19:45.833Z,100970.72
2022-11-20T03:22:12.309Z,100974.97
2022-11-20T03:24:38.855Z,100975.84
2022-11-20T03:27:05.344Z,100967.31
2022-11-20T03:29:31.787Z,100970.75
2022-11-20T03:31:58.320Z,100972.41
2022-11-20T03:34:24.988Z,100971.59
2022-11-20T03:36:51.401Z,100971.56
2022-11-20T03:39:17.986Z,100963.88
2022-11-20T03:41:44.506Z,100966.44
2022-11-20T03:44:12.002Z,100966.44
2022-11-20T03:46:39.132Z,100968.16
2022-11-20T03:49:06.052Z,100967.28
2022-11-20T03:51:35.670Z,100956.19
2022-11-20T03:54:05.705Z,100960.41
2022-11-20T03:56:34.705Z,100957.00
2022-11-20T03:59:01.297Z,100962.09
2022-11-20T04:01:33.127Z,100952.72
2022-11-20T04:04:00.239Z,100948.47
2022-11-20T04:06:34.242Z,100955.31
2022-11-20T04:09:01.148Z,100951.06
2022-11-20T04:11:32.852Z,100954.47
2022-11-20T04:14:01.802Z,100944.22
2022-11-20T04:16:30.912Z,100949.34
2022-11-20T04:18:59.593Z,100951.06
2022-11-20T04:21:27.294Z,100946.78
2022-11-20T04:23:54.642Z,100945.97
2022-11-20T04:26:23.145Z,100947.66
2022-11-20T04:28:49.641Z,100948.50
2022-11-20T04:31:18.828Z,100951.91
2022-11-20T04:33:45.646Z,100942.50
2022-11-20T04:36:23.304Z,100945.06
2022-11-20T04:38:57.135Z,100941.63
2022-11-20T04:41:26.892Z,100945.88
2022-11-20T04:44:00.324Z,100951.03
2022-11-20T04:46:28.776Z,100953.59
2022-11-20T04:48:55.573Z,100956.13
2022-11-20T04:51:22.499Z,100959.53
2022-11-20T04:53:49.191Z,100952.69
2022-11-20T04:56:16.201Z,100944.97
2022-11-20T04:58:43.057Z,100936.47
2022-11-20T05:01:16.053Z,100945.84
2022-11-20T05:03:44.015Z,100946.72
2022-11-20T05:06:13.278Z,100947.56
2022-11-20T05:08:40.233Z,100939.94
2022-11-20T05:11:09.376Z,100953.59
2022-11-20T05:13:36.373Z,100957.00
2022-11-20T05:16:05.180Z,100952.69
2022-11-20T05:18:32.842Z,100950.13
2022-11-20T05:20:59.539Z,100951.84
2022-11-20T05:23:26.378Z,100946.69
2022-11-20T05:25:58.909Z,100949.25
2022-11-20T05:28:27.030Z,100956.94
2022-11-20T05:30:53.542Z,100954.38
2022-11-20T05:33:20.283Z,100942.41
2022-11-20T05:35:46.825Z,100950.09
2022-11-20T05:38:13.305Z,100938.13
2022-11-20T05:40:40.164Z,100938.13
2022-11-20T05:43:06.746Z,100944.94
2022-11-20T05:45:33.173Z,100945.81
2022-11-20T05:48:01.281Z,100941.53
2022-11-20T05:50:31.244Z,100948.38
2022-11-20T05:53:00.979Z,100942.41
2022-11-20T05:55:28.158Z,100950.09
2022-11-20T05:57:56.078Z,100946.69
2022-11-20T06:00:23.116Z,100933.91
2022-11-20T06:02:50.006Z,100934.69
2022-11-20T06:05:16.630Z,100939.81
2022-11-20T06:07:43.119Z,100935.56
2022-11-20T06:10:10.045Z,100937.28
2022-11-20T06:12:36.484Z,100934.69
2022-11-20T06:15:03.226Z,100933.00
2022-11-20T06:17:30.059Z,100931.28
2022-11-20T06:19:56.546Z,100937.25
2022-11-20T06:22:23.058Z,100933.81
2022-11-20T06:24:49.770Z,100938.09
2022-11-20T06:27:16.922Z,100947.50
2022-11-20T06:29:43.657Z,100944.06
2022-11-20T06:32:10.316Z,100944.06
2022-11-20T06:34:36.744Z,100944.94
2022-11-20T06:37:03.185Z,100946.63
2022-11-20T06:39:29.695Z,100951.72
2022-11-20T06:41:59.085Z,100956.84
2022-11-20T06:44:26.177Z,100953.41
2022-11-20T06:46:52.945Z,100959.41
2022-11-20T06:49:19.705Z,100955.16
2022-11-20T06:51:47.188Z,100953.44
2022-11-20T06:54:13.622Z,100961.97
2022-11-20T06:56:40.140Z,100964.53
2022-11-20T06:59:08.208Z,100953.41
2022-11-20T07:01:34.726Z,100958.53
2022-11-20T07:04:01.186Z,100966.22
2022-11-20T07:06:27.662Z,100967.03
2022-11-20T07:08:54.091Z,100978.16
2022-11-20T07:11:20.634Z,100971.31
2022-11-20T07:13:47.081Z,100964.50
2022-11-20T07:16:13.573Z,100972.16
2022-11-20T07:18:40.101Z,100970.47
2022-11-20T07:21:09.437Z,100968.78
2022-11-20T07:23:36.468Z,100972.16
2022-11-20T07:26:07.690Z,100969.59
2022-11-20T07:28:34.977Z,100969.59
2022-11-20T07:31:01.879Z,100973.88
2022-11-20T07:33:28.407Z,100968.72
2022-11-20T07:35:55.274Z,100963.59
2022-11-20T07:38:21.906Z,100965.28
2022-11-20T07:40:48.384Z,100955.88
2022-11-20T07:43:14.855Z,100954.16
2022-11-20T07:45:41.343Z,100951.59
2022-11-20T07:48:07.938Z,100949.84
2022-11-20T07:50:34.438Z,100957.50
2022-11-20T07:53:05.706Z,100948.09
2022-11-20T07:55:33.126Z,100944.69
2022-11-20T07:58:00.150Z,100937.84
2022-11-20T08:00:27.664Z,100937.81
2022-11-20T08:02:54.663Z,100937.81
2022-11-20T08:05:21.945Z,100939.50
2022-11-20T08:07:48.844Z,100936.91
2022-11-20T08:10:17.222Z,100938.59
2022-11-20T08:13:14.916Z,100938.53
2022-11-20T08:15:41.626Z,100937.63
2022-11-20T08:21:02.653Z,100946.06
2022-11-20T08:23:29.133Z,100939.22
2022-11-20T08:25:55.607Z,100948.59
2022-11-20T08:28:22.533Z,100951.94
2022-11-20T08:30:51.518Z,100947.59
2022-11-20T08:33:18.989Z,100950.91
2022-11-20T08:35:45.588Z,100950.84
2022-11-20T08:38:12.230Z,100950.78
2022-11-20T08:40:38.708Z,100949.03
2022-11-20T08:43:05.420Z,100956.63
2022-11-20T08:45:34.746Z,100959.19
2022-11-20T08:48:03.584Z,100954.97
2022-11-20T08:50:33.287Z,100955.00
2022-11-20T08:53:06.759Z,100945.53
2022-11-20T08:55:33.708Z,100957.50
2022-11-20T08:58:04.599Z,100960.94
2022-11-20T09:00:31.053Z,100957.44
2022-11-20T09:02:58.449Z,100956.56
2022-11-20T09:05:25.146Z,100947.09
2022-11-20T09:07:51.642Z,100939.38
2022-11-20T09:10:25.536Z,100949.66
2022-11-20T09:12:53.203Z,100935.94
2022-11-20T09:15:20.327Z,100929.09
2022-11-20T09:18:05.960Z,100940.16
2022-11-20T09:20:32.840Z,100933.25
2022-11-20T09:22:59.365Z,100925.50
2022-11-20T09:25:25.866Z,100923.88
2022-11-20T09:27:59.760Z,100928.19
2022-11-20T09:30:28.471Z,100924.88
2022-11-20T09:32:55.130Z,100928.31
2022-11-20T09:35:21.633Z,100916.41
2022-11-20T09:37:48.129Z,100916.47
2022-11-20T09:40:21.761Z,100918.22
2022-11-20T09:42:51.199Z,100913.16
2022-11-20T09:45:44.010Z,100908.06
2022-11-20T09:48:31.243Z,100902.94
2022-11-20T09:51:45.808Z,100917.53
2022-11-20T09:54:28.835Z,100912.38
2022-11-20T09:57:00.532Z,100920.91
2022-11-20T09:59:51.393Z,100912.38
2022-11-20T10:02:29.031Z,100920.06
2022-11-20T10:05:14.489Z,100921.78
2022-11-20T10:08:05.866Z,100920.97
2022-11-20T10:10:57.356Z,100909.78
2022-11-20T10:13:23.789Z,100907.19
2022-11-20T10:16:10.612Z,100902.94
2022-11-20T10:18:54.270Z,100896.84
2022-11-20T10:21:26.655Z,100890.72
2022-11-20T10:24:08.541Z,100891.50
2022-11-20T10:26:54.636Z,100886.28
2022-11-20T10:29:36.144Z,100882.16
2022-11-20T10:32:21.417Z,100875.19
2022-11-20T10:35:14.499Z,100874.19
2022-11-20T10:37:45.797Z,100869.91
2022-11-20T10:40:49.395Z,100862.22
2022-11-20T10:43:33.222Z,100860.72
2022-11-20T10:46:04.954Z,100856.38
2022-11-20T10:48:32.865Z,100850.44
2022-11-20T10:51:11.986Z,100856.25
2022-11-20T10:53:44.705Z,100857.13
2022-11-20T10:56:48.305Z,100852.06
2022-11-20T10:59:44.131Z,100845.19
2022-11-20T11:02:22.409Z,100843.41
2022-11-20T11:04:51.960Z,100838.13
2022-11-20T11:07:39.598Z,100835.75
2022-11-20T11:10:43.668Z,100833.16
2022-11-20T11:13:21.407Z,100829.19
2022-11-20T11:15:47.904Z,100826.63
2022-11-20T11:18:27.690Z,100820.63
2022-11-20T11:20:56.283Z,100823.19
2022-11-20T11:23:33.838Z,100817.13
2022-11-20T11:26:02.185Z,100794.78
2022-11-20T11:28:29.666Z,100787.84
2022-11-20T11:30:56.889Z,100786.88
2022-11-20T11:33:28.811Z,100774.88
2022-11-20T11:36:17.877Z,100768.75
2022-11-20T11:38:45.548Z,100763.63
2022-11-20T11:41:24.189Z,100760.97
2022-11-20T11:44:13.410Z,100760.97
2022-11-20T11:46:44.954Z,100756.66
2022-11-20T11:49:11.354Z,100751.44
2022-11-20T11:52:25.943Z,100751.41
2022-11-20T11:54:56.165Z,100743.66
2022-11-20T11:57:37.918Z,100740.31
2022-11-20T12:00:17.647Z,100737.72
2022-11-20T12:02:47.351Z,100730.78
2022-11-20T12:05:22.865Z,100729.94
2022-11-20T12:07:58.522Z,100729.19
2022-11-20T12:10:42.666Z,100727.41
2022-11-20T12:13:31.050Z,100728.25
2022-11-20T12:15:57.642Z,100728.31
2022-11-20T12:18:24.325Z,100718.03
2022-11-20T12:21:16.018Z,100718.13
2022-11-20T12:23:42.452Z,100724.06
2022-11-20T12:26:49.670Z,100709.44
2022-11-20T12:29:22.482Z,100709.41
2022-11-20T12:32:02.374Z,100701.72
2022-11-20T12:34:51.953Z,100703.41
2022-11-20T12:37:24.542Z,100701.66
2022-11-20T12:39:54.348Z,100699.94
2022-11-20T12:43:00.510Z,100701.66
2022-11-20T12:45:41.302Z,100701.66
2022-11-20T12:48:25.480Z,100692.19
2022-11-20T12:51:17.026Z,100687.81
2022-11-20T12:54:20.472Z,100676.66
2022-11-20T12:57:16.951Z,100678.41
2022-11-20T13:00:11.865Z,100661.16
2022-11-20T13:03:08.941Z,100662.06
2022-11-20T13:05:59.922Z,100650.09
2022-11-20T13:08:33.349Z,100642.41
2022-11-20T13:11:14.440Z,100637.28
2022-11-20T13:13:48.235Z,100636.41
2022-11-20T13:16:26.160Z,100633.00
2022-11-20T13:18:52.890Z,100630.50
2022-11-20T13:21:40.917Z,100626.13
2022-11-20T13:24:25.009Z,100626.06
2022-11-20T13:27:07.037Z,100624.34
2022-11-20T13:29:35.477Z,100608.94
2022-11-20T13:32:19.439Z,100603.81
2022-11-20T13:34:58.220Z,100612.44
2022-11-20T13:37:30.478Z,100606.44
2022-11-20T13:40:13.138Z,100604.78
2022-11-20T13:42:46.544Z,100599.66
2022-11-20T13:45:41.588Z,100593.66
2022-11-20T13:48:23.070Z,100585.16
2022-11-20T13:51:08.006Z,100583.44
2022-11-20T13:54:13.419Z,100576.53
2022-11-20T13:56:45.973Z,100571.34
2022-11-20T13:59:27.712Z,100560.19
2022-11-20T14:01:54.959Z,100562.72
2022-11-20T14:04:30.094Z,100558.47
2022-11-20T14:06:57.829Z,100560.16
2022-11-20T14:09:33.371Z,100553.22
2022-11-20T14:12:00.505Z,100547.19
2022-11-20T14:14:29.360Z,100547.16
2022-11-20T14:17:28.557Z,100533.44
2022-11-20T14:19:59.119Z,100526.63
2022-11-20T14:22:27.108Z,100516.28
2022-11-20T14:25:16.568Z,100494.88
2022-11-20T14:27:48.837Z,100492.25
2022-11-20T14:30:21.982Z,100485.38
2022-11-20T14:32:49.661Z,100493.06
2022-11-20T14:35:27.601Z,100493.91
2022-11-20T14:37:54.937Z,100489.63
2022-11-20T14:40:38.445Z,100481.97
2022-11-20T14:43:24.893Z,100477.75
2022-11-20T14:46:00.766Z,100476.06
2022-11-20T14:48:36.247Z,100469.19
2022-11-20T14:51:03.269Z,100470.06
2022-11-20T14:53:29.748Z,100462.41
2022-11-20T14:56:01.484Z,100457.28
2022-11-20T14:58:32.477Z,100453.00
2022-11-20T15:01:05.093Z,100453.03
2022-11-20T15:03:40.235Z,100446.09
2022-11-20T15:06:08.941Z,100444.41
2022-11-20T15:08:35.949Z,100441.78
2022-11-20T15:11:03.094Z,100436.66
2022-11-20T15:13:35.491Z,100432.34
2022-11-20T15:16:02.975Z,100427.09
2022-11-20T15:18:38.520Z,100423.72
2022-11-20T15:21:11.813Z,100415.25
2022-11-20T15:23:38.609Z,100408.41
2022-11-20T15:26:06.764Z,100403.28
2022-11-20T15:28:45.056Z,100404.25
2022-11-20T15:31:17.636Z,100394.81
2022-11-20T15:33:44.371Z,100395.69
2022-11-20T15:36:11.187Z,100392.25
2022-11-20T15:38:38.072Z,100377.66
2022-11-20T15:41:05.243Z,100375.94
2022-11-20T15:43:31.718Z,100382.72
2022-11-20T15:46:03.450Z,100380.19
2022-11-20T15:48:46.195Z,100387.88
2022-11-20T15:51:36.062Z,100386.09
2022-11-20T15:54:11.285Z,100378.38
2022-11-20T15:56:38.444Z,100377.53
2022-11-20T15:59:04.944Z,100379.22
2022-11-20T16:01:31.783Z,100370.63
2022-11-20T16:03:58.334Z,100367.22
2022-11-20T16:06:24.770Z,100365.47
2022-11-20T16:08:51.234Z,100367.16
2022-11-20T16:11:19.122Z,100366.31
2022-11-20T16:14:04.745Z,100374.84
2022-11-20T16:16:35.112Z,100367.16
2022-11-20T16:19:01.588Z,100356.84
2022-11-20T16:21:32.513Z,100353.38
2022-11-20T16:24:01.554Z,100349.03
2022-11-20T16:26:28.836Z,100344.78
2022-11-20T16:28:55.940Z,100337.91
2022-11-20T16:31:23.278Z,100327.59
2022-11-20T16:33:51.880Z,100326.75
2022-11-20T16:36:19.653Z,100321.59
2022-11-20T16:38:46.218Z,100308.78
2022-11-20T16:41:15.766Z,100295.88
2022-11-20T16:44:02.346Z,100299.25
2022-11-20T16:46:32.688Z,100294.22
2022-11-20T16:49:01.292Z,100290.78
2022-11-20T16:51:29.656Z,100285.69
2022-11-20T16:53:56.785Z,100278.84
2022-11-20T16:56:25.846Z,100269.44
2022-11-20T16:58:54.865Z,100264.31
2022-11-20T17:01:23.050Z,100257.41
2022-11-20T17:04:04.185Z,100259.84
2022-11-20T17:06:44.287Z,100258.16
2022-11-20T17:09:11.285Z,100244.53
2022-11-20T17:11:37.921Z,100247.97
2022-11-20T17:14:09.492Z,100240.19
2022-11-20T17:16:36.971Z,100229.84
2022-11-20T17:19:05.684Z,100223.72
2022-11-20T17:21:33.554Z,100205.72
2022-11-20T17:24:02.336Z,100191.97
2022-11-20T17:26:29.434Z,100185.16
2022-11-20T17:29:01.766Z,100186.00
2022-11-20T17:31:30.088Z,100176.47
2022-11-20T17:33:56.704Z,100173.03
2022-11-20T17:36:23.287Z,100160.97
2022-11-20T17:38:49.985Z,100164.31
2022-11-20T17:41:18.824Z,100155.81
2022-11-20T17:43:46.481Z,100154.94
2022-11-20T17:46:18.081Z,100141.19
2022-11-20T17:48:45.591Z,100137.78
2022-11-20T17:51:14.709Z,100133.47
2022-11-20T17:53:43.201Z,100130.03
2022-11-20T17:56:29.082Z,100119.75
2022-11-20T17:58:55.972Z,100119.75
2022-11-20T18:01:22.828Z,100113.69
2022-11-20T18:03:49.969Z,100114.41
2022-11-20T18:06:22.503Z,100106.69
2022-11-20T18:08:50.290Z,100105.78
2022-11-20T18:11:25.696Z,100100.59
2022-11-20T18:14:13.784Z,100097.13
2022-11-20T18:16:43.406Z,100092.66
2022-11-20T18:19:11.964Z,100081.53
2022-11-20T18:21:38.701Z,100068.72
2022-11-20T18:24:08.622Z,100062.75
2022-11-20T18:26:39.954Z,100070.31
2022-11-20T18:29:10.017Z,100074.59
2022-11-20T18:31:36.518Z,100060.84
2022-11-20T18:34:03.260Z,100054.84
2022-11-20T18:36:31.140Z,100061.69
2022-11-20T18:39:00.017Z,100055.63
2022-11-20T18:41:47.021Z,100048.72
2022-11-20T18:44:36.982Z,100052.97
2022-11-20T18:47:08.361Z,100041.59
2022-11-20T18:49:40.444Z,100027.06
2022-11-20T18:52:06.951Z,100024.47
2022-11-20T18:54:36.292Z,100020.09
2022-11-20T18:57:03.372Z,100008.13
2022-11-20T18:59:30.156Z,100003.72
2022-11-20T19:01:56.932Z,99987.19
2022-11-20T19:04:23.735Z,99987.06
2022-11-20T19:06:50.578Z,99989.56
2022-11-20T19:09:17.377Z,99987.06
2022-11-20T19:11:43.990Z,99980.97
2022-11-20T19:14:10.753Z,99981.81
2022-11-20T19:16:37.464Z,99971.44
2022-11-20T19:19:05.542Z,99968.81
2022-11-20T19:21:32.483Z,99954.13
2022-11-20T19:24:01.241Z,99959.97
2022-11-20T19:26:28.208Z,99955.69
2022-11-20T19:28:55.181Z,99954.59
2022-11-20T19:31:25.081Z,99946.59
2022-11-20T19:33:57.099Z,99952.44
2022-11-20T19:36:38.078Z,99941.94
2022-11-20T19:39:09.238Z,99955.38
2022-11-20T19:41:37.866Z,99954.38
2022-11-20T19:44:06.888Z,99953.28
2022-11-20T19:46:35.826Z,99947.19
2022-11-20T19:49:03.557Z,99943.50
2022-11-20T19:51:33.924Z,99951.94
2022-11-20T19:54:01.950Z,99951.63
2022-11-20T19:56:29.730Z,99954.19
2022-11-20T19:58:57.621Z,99953.19
2022-11-20T20:01:29.449Z,99954.81
2022-11-20T20:03:57.662Z,99960.50
2022-11-20T20:06:28.132Z,99961.34
2022-11-20T20:09:00.336Z,99975.06
2022-11-20T20:11:28.868Z,99972.47
2022-11-20T20:13:56.434Z,99975.97
2022-11-20T20:16:25.342Z,99973.31
2022-11-20T20:19:01.309Z,99980.78
2022-11-20T20:21:28.231Z,99987.72
2022-11-20T20:23:55.562Z,99991.09
2022-11-20T20:26:26.982Z,99988.56
2022-11-20T20:28:53.941Z,100001.63
2022-11-20T20:31:23.437Z,100007.66
2022-11-20T20:33:49.976Z,100017.06
2022-11-20T20:36:18.837Z,100013.72
2022-11-20T20:38:46.511Z,100020.69
2022-11-20T20:41:13.919Z,100031.13
2022-11-20T20:43:59.664Z,100037.13
2022-11-20T20:46:26.237Z,100040.59
2022-11-20T20:48:54.824Z,100032.97
2022-11-20T20:51:22.882Z,100040.03
2022-11-20T20:53:50.020Z,100053.91
2022-11-20T20:56:17.430Z,100055.59
2022-11-20T20:58:44.084Z,100062.41
2022-11-20T21:01:13.677Z,100058.13
2022-11-20T21:03:40.362Z,100067.81
2022-11-20T21:06:09.946Z,100060.06
2022-11-20T21:08:40.161Z,100061.94
2022-11-20T21:11:10.195Z,100081.88
2022-11-20T21:13:38.122Z,100079.41
2022-11-20T21:16:05.362Z,100096.75
2022-11-20T21:18:33.274Z,100094.22
2022-11-20T21:21:18.587Z,100097.72
2022-11-20T21:23:48.345Z,100102.97
2022-11-20T21:26:16.085Z,100103.16
2022-11-20T21:28:43.391Z,100105.84
2022-11-20T21:31:15.633Z,100102.50
2022-11-20T21:33:46.433Z,100108.56
2022-11-20T21:36:15.439Z,100113.13
2022-11-20T21:38:42.208Z,100116.63
2022-11-20T21:41:10.743Z,100132.09
2022-11-20T21:43:37.625Z,100126.28
2022-11-20T21:46:09.424Z,100119.63
2022-11-20T21:48:37.845Z,100125.78
2022-11-20T21:51:06.913Z,100131.19
2022-11-20T21:53:34.500Z,100126.09
2022-11-20T21:56:01.962Z,100131.41
2022-11-20T21:58:28.571Z,100133.25
2022-11-20T22:00:55.151Z,100135.81
2022-11-20T22:03:22.188Z,100141.91
2022-11-20T22:05:58.860Z,100135.91
2022-11-20T22:08:26.450Z,100135.94
2022-11-20T22:11:04.251Z,100133.44
2022-11-20T22:13:49.926Z,100148.06
2022-11-20T22:16:16.490Z,100139.63
2022-11-20T22:18:48.518Z,100141.41
2022-11-20T22:21:16.804Z,100138.06
2022-11-20T22:23:43.668Z,100145.09
2022-11-20T22:26:16.332Z,100157.97
2022-11-20T22:28:43.277Z,100154.56
2022-11-20T22:31:11.413Z,100152.03
2022-11-20T22:33:39.070Z,100152.66
2022-11-20T22:36:07.825Z,100165.63
2022-11-20T22:38:39.132Z,100166.47
2022-11-20T22:41:08.498Z,100169.25
2022-11-20T22:43:35.215Z,100171.97
2022-11-20T22:46:07.561Z,100174.63
2022-11-20T22:48:35.236Z,100180.59
2022-11-20T22:51:09.148Z,100178.06
2022-11-20T22:53:36.103Z,100184.06
2022-11-20T22:56:03.861Z,100182.50
2022-11-20T22:58:31.009Z,100188.44
2022-11-20T23:01:11.048Z,100193.59
2022-11-20T23:03:38.868Z,100198.59
2022-11-20T23:06:07.206Z,100196.22
2022-11-20T23:08:33.772Z,100203.19
2022-11-20T23:11:06.414Z,100204.88
2022-11-20T23:13:33.638Z,100214.47
2022-11-20T23:16:03.009Z,100223.97
2022-11-20T23:18:29.910Z,100218.03
2022-11-20T23:20:57.076Z,100219.72
2022-11-20T23:23:23.597Z,100224.34
2022-11-20T23:25:50.693Z,100215.75
2022-11-20T23:28:17.153Z,100232.91
2022-11-20T23:30:47.471Z,100227.81
2022-11-20T23:33:13.936Z,100236.44
2022-11-20T23:35:40.415Z,100242.47
2022-11-20T23:38:06.891Z,100232.19
2022-11-20T23:40:38.753Z,100244.16
2022-11-20T23:43:16.837Z,100250.31
2022-11-20T23:45:48.449Z,100254.84
2022-11-20T23:48:15.735Z,100253.97
2022-11-20T23:50:43.889Z,100255.69
2022-11-20T23:53:11.432Z,100257.44
2022-11-20T23:55:38.012Z,100262.47
2022-11-20T23:58:05.026Z,100261.72
